sensor_id;sensor_type;location;lat;lon;timestamp;P1;durP1;ratioP1;P2;durP2;ratioP2
31531;SDS011;23787;52.180;5.288;2022-09-03T00:08:02;149.50;;;137.60;;
31531;SDS011;23787;52.180;5.288;2022-09-03T00:15:33;167.70;;;154.00;;
31531;SDS011;23787;52.180;5.288;2022-09-03T00:25:36;167.70;;;154.00;;
31531;SDS011;23787;52.180;5.288;2022-09-03T00:35:36;183.70;;;169.20;;
31531;SDS011;23787;52.180;5.288;2022-09-03T00:40:44;183.70;;;169.20;;
31531;SDS011;23787;52.180;5.288;2022-09-03T00:45:37;186.00;;;172.10;;
31531;SDS011;23787;52.180;5.288;2022-09-03T00:50:44;186.00;;;172.10;;
31531;SDS011;23787;52.180;5.288;2022-09-03T00:55:42;186.00;;;172.10;;
31531;SDS011;23787;52.180;5.288;2022-09-03T01:25:45;233.80;;;215.70;;
31531;SDS011;23787;52.180;5.288;2022-09-03T01:30:38;209.00;;;192.60;;
31531;SDS011;23787;52.180;5.288;2022-09-03T01:35:36;209.00;;;192.60;;
31531;SDS011;23787;52.180;5.288;2022-09-03T01:45:37;252.60;;;234.70;;
31531;SDS011;23787;52.180;5.288;2022-09-03T01:50:42;252.60;;;234.70;;
31531;SDS011;23787;52.180;5.288;2022-09-03T01:55:43;252.60;;;234.70;;
31531;SDS011;23787;52.180;5.288;2022-09-03T02:05:32;259.30;;;240.00;;
31531;SDS011;23787;52.180;5.288;2022-09-03T02:15:34;245.60;;;227.00;;
31531;SDS011;23787;52.180;5.288;2022-09-03T02:25:36;245.60;;;227.00;;
31531;SDS011;23787;52.180;5.288;2022-09-03T02:45:32;287.00;;;266.40;;
31531;SDS011;23787;52.180;5.288;2022-09-03T03:05:41;286.80;;;266.10;;
31531;SDS011;23787;52.180;5.288;2022-09-03T03:15:32;267.40;;;248.40;;
31531;SDS011;23787;52.180;5.288;2022-09-03T03:30:33;307.10;;;284.70;;
31531;SDS011;23787;52.180;5.288;2022-09-03T03:35:32;307.10;;;284.70;;
31531;SDS011;23787;52.180;5.288;2022-09-03T03:40:32;307.10;;;284.70;;
31531;SDS011;23787;52.180;5.288;2022-09-03T03:45:32;292.70;;;271.80;;
31531;SDS011;23787;52.180;5.288;2022-09-03T03:50:32;292.70;;;271.80;;
31531;SDS011;23787;52.180;5.288;2022-09-03T03:55:32;292.70;;;271.80;;
31531;SDS011;23787;52.180;5.288;2022-09-03T04:10:32;295.40;;;273.10;;
31531;SDS011;23787;52.180;5.288;2022-09-03T04:15:32;323.60;;;301.20;;
31531;SDS011;23787;52.180;5.288;2022-09-03T04:20:32;323.60;;;301.20;;
31531;SDS011;23787;52.180;5.288;2022-09-03T04:25:32;323.60;;;301.20;;
31531;SDS011;23787;52.180;5.288;2022-09-03T04:30:32;315.90;;;293.50;;
31531;SDS011;23787;52.180;5.288;2022-09-03T04:40:32;315.90;;;293.50;;
31531;SDS011;23787;52.180;5.288;2022-09-03T04:45:32;312.30;;;290.00;;
31531;SDS011;23787;52.180;5.288;2022-09-03T04:50:32;312.30;;;290.00;;
31531;SDS011;23787;52.180;5.288;2022-09-03T04:55:32;312.30;;;290.00;;
31531;SDS011;23787;52.180;5.288;2022-09-03T05:05:32;293.10;;;272.80;;
31531;SDS011;23787;52.180;5.288;2022-09-03T05:10:32;293.10;;;272.80;;
31531;SDS011;23787;52.180;5.288;2022-09-03T05:15:32;336.20;;;311.30;;
31531;SDS011;23787;52.180;5.288;2022-09-03T05:20:32;336.20;;;311.30;;
31531;SDS011;23787;52.180;5.288;2022-09-03T05:45:32;320.70;;;297.80;;
31531;SDS011;23787;52.180;5.288;2022-09-03T05:50:32;320.70;;;297.80;;
31531;SDS011;23787;52.180;5.288;2022-09-03T05:55:32;320.70;;;297.80;;
31531;SDS011;23787;52.180;5.288;2022-09-03T06:05:32;343.00;;;318.30;;
31531;SDS011;23787;52.180;5.288;2022-09-03T06:10:32;343.00;;;318.30;;
31531;SDS011;23787;52.180;5.288;2022-09-03T06:15:32;333.50;;;310.50;;
31531;SDS011;23787;52.180;5.288;2022-09-03T06:20:32;333.50;;;310.50;;
31531;SDS011;23787;52.180;5.288;2022-09-03T06:25:32;333.50;;;310.50;;
31531;SDS011;23787;52.180;5.288;2022-09-03T06:30:32;330.20;;;307.00;;
31531;SDS011;23787;52.180;5.288;2022-09-03T06:35:32;330.20;;;307.00;;
31531;SDS011;23787;52.180;5.288;2022-09-03T06:40:32;330.20;;;307.00;;
31531;SDS011;23787;52.180;5.288;2022-09-03T06:45:32;303.60;;;281.60;;
31531;SDS011;23787;52.180;5.288;2022-09-03T06:50:32;303.60;;;281.60;;
31531;SDS011;23787;52.180;5.288;2022-09-03T06:55:32;303.60;;;281.60;;
31531;SDS011;23787;52.180;5.288;2022-09-03T07:00:32;288.00;;;266.10;;
31531;SDS011;23787;52.180;5.288;2022-09-03T07:05:32;288.00;;;266.10;;
31531;SDS011;23787;52.180;5.288;2022-09-03T07:10:35;288.00;;;266.10;;
31531;SDS011;23787;52.180;5.288;2022-09-03T07:15:32;241.90;;;223.90;;
31531;SDS011;23787;52.180;5.288;2022-09-03T07:20:32;241.90;;;223.90;;
31531;SDS011;23787;52.180;5.288;2022-09-03T07:25:32;241.90;;;223.90;;
31531;SDS011;23787;52.180;5.288;2022-09-03T07:30:32;155.50;;;142.40;;
31531;SDS011;23787;52.180;5.288;2022-09-03T07:35:35;155.50;;;142.40;;
31531;SDS011;23787;52.180;5.288;2022-09-03T07:40:32;155.50;;;142.40;;
31531;SDS011;23787;52.180;5.288;2022-09-03T07:45:32;101.10;;;93.10;;
31531;SDS011;23787;52.180;5.288;2022-09-03T07:59:48;63.20;;;57.80;;
31531;SDS011;23787;52.180;5.288;2022-09-03T08:04:48;63.20;;;57.80;;
31531;SDS011;23787;52.180;5.288;2022-09-03T08:09:48;63.20;;;57.80;;
31531;SDS011;23787;52.180;5.288;2022-09-03T08:14:48;43.40;;;39.50;;
31531;SDS011;23787;52.180;5.288;2022-09-03T08:19:48;43.40;;;39.50;;
31531;SDS011;23787;52.180;5.288;2022-09-03T08:24:48;43.40;;;39.50;;
31531;SDS011;23787;52.180;5.288;2022-09-03T08:29:48;37.00;;;33.80;;
31531;SDS011;23787;52.180;5.288;2022-09-03T08:34:48;37.00;;;33.80;;
31531;SDS011;23787;52.180;5.288;2022-09-03T08:39:48;37.00;;;33.80;;
31531;SDS011;23787;52.180;5.288;2022-09-03T08:44:50;23.20;;;21.20;;
31531;SDS011;23787;52.180;5.288;2022-09-03T08:49:51;23.20;;;21.20;;
31531;SDS011;23787;52.180;5.288;2022-09-03T08:54:50;23.20;;;21.20;;
31531;SDS011;23787;52.180;5.288;2022-09-03T08:59:53;17.00;;;15.50;;
31531;SDS011;23787;52.180;5.288;2022-09-03T09:04:58;17.00;;;15.50;;
31531;SDS011;23787;52.180;5.288;2022-09-03T09:09:53;17.00;;;15.50;;
31531;SDS011;23787;52.180;5.288;2022-09-03T09:14:57;14.20;;;12.80;;
31531;SDS011;23787;52.180;5.288;2022-09-03T09:19:54;14.20;;;12.80;;
31531;SDS011;23787;52.180;5.288;2022-09-03T09:24:49;14.20;;;12.80;;
31531;SDS011;23787;52.180;5.288;2022-09-03T09:29:50;22.20;;;20.50;;
31531;SDS011;23787;52.180;5.288;2022-09-03T09:34:48;22.20;;;20.50;;
31531;SDS011;23787;52.180;5.288;2022-09-03T09:39:54;22.20;;;20.50;;
31531;SDS011;23787;52.180;5.288;2022-09-03T09:44:49;19.00;;;17.20;;
31531;SDS011;23787;52.180;5.288;2022-09-03T09:49:52;19.00;;;17.20;;
31531;SDS011;23787;52.180;5.288;2022-09-03T09:59:49;10.50;;;9.60;;
31531;SDS011;23787;52.180;5.288;2022-09-03T10:04:48;10.50;;;9.60;;
31531;SDS011;23787;52.180;5.288;2022-09-03T10:09:58;10.50;;;9.60;;
31531;SDS011;23787;52.180;5.288;2022-09-03T10:14:53;12.70;;;11.60;;
31531;SDS011;23787;52.180;5.288;2022-09-03T10:19:56;12.70;;;11.60;;
31531;SDS011;23787;52.180;5.288;2022-09-03T10:24:57;12.70;;;11.60;;
31531;SDS011;23787;52.180;5.288;2022-09-03T10:29:49;9.50;;;8.60;;
31531;SDS011;23787;52.180;5.288;2022-09-03T10:34:58;9.50;;;8.60;;
31531;SDS011;23787;52.180;5.288;2022-09-03T10:40:07;9.50;;;8.60;;
31531;SDS011;23787;52.180;5.288;2022-09-03T10:44:58;9.30;;;8.50;;
31531;SDS011;23787;52.180;5.288;2022-09-03T10:49:54;9.30;;;8.50;;
31531;SDS011;23787;52.180;5.288;2022-09-03T10:54:54;9.30;;;8.50;;
31531;SDS011;23787;52.180;5.288;2022-09-03T11:00:00;11.00;;;9.90;;
31531;SDS011;23787;52.180;5.288;2022-09-03T11:04:53;11.00;;;9.90;;
31531;SDS011;23787;52.180;5.288;2022-09-03T11:09:53;11.00;;;9.90;;
31531;SDS011;23787;52.180;5.288;2022-09-03T11:14:52;10.50;;;9.50;;
31531;SDS011;23787;52.180;5.288;2022-09-03T11:19:52;10.50;;;9.50;;
31531;SDS011;23787;52.180;5.288;2022-09-03T11:24:52;10.50;;;9.50;;
31531;SDS011;23787;52.180;5.288;2022-09-03T11:29:52;15.90;;;14.50;;
31531;SDS011;23787;52.180;5.288;2022-09-03T11:34:50;15.90;;;14.50;;
31531;SDS011;23787;52.180;5.288;2022-09-03T11:39:55;15.90;;;14.50;;
31531;SDS011;23787;52.180;5.288;2022-09-03T11:44:50;9.70;;;8.90;;
31531;SDS011;23787;52.180;5.288;2022-09-03T11:49:50;9.70;;;8.90;;
31531;SDS011;23787;52.180;5.288;2022-09-03T11:54:48;9.70;;;8.90;;
31531;SDS011;23787;52.180;5.288;2022-09-03T11:59:48;8.20;;;7.50;;
31531;SDS011;23787;52.180;5.288;2022-09-03T12:04:53;8.20;;;7.50;;
31531;SDS011;23787;52.180;5.288;2022-09-03T12:09:53;8.20;;;7.50;;
31531;SDS011;23787;52.180;5.288;2022-09-03T12:14:55;8.40;;;7.70;;
31531;SDS011;23787;52.180;5.288;2022-09-03T12:19:51;8.40;;;7.70;;
31531;SDS011;23787;52.180;5.288;2022-09-03T12:24:49;8.40;;;7.70;;
31531;SDS011;23787;52.180;5.288;2022-09-03T12:29:52;6.40;;;5.80;;
31531;SDS011;23787;52.180;5.288;2022-09-03T12:34:48;6.40;;;5.80;;
31531;SDS011;23787;52.180;5.288;2022-09-03T12:39:50;6.40;;;5.80;;
31531;SDS011;23787;52.180;5.288;2022-09-03T12:44:49;7.50;;;6.80;;
31531;SDS011;23787;52.180;5.288;2022-09-03T12:52:51;unknown;;;unknown;;
31531;SDS011;23787;52.180;5.288;2022-09-03T12:57:52;8.60;;;7.90;;
31531;SDS011;23787;52.180;5.288;2022-09-03T13:02:54;8.60;;;7.90;;
31531;SDS011;23787;52.180;5.288;2022-09-03T13:07:51;8.60;;;7.90;;
31531;SDS011;23787;52.180;5.288;2022-09-03T13:12:49;9.10;;;8.30;;
31531;SDS011;23787;52.180;5.288;2022-09-03T13:18:08;9.10;;;8.30;;
31531;SDS011;23787;52.180;5.288;2022-09-03T13:23:01;9.10;;;8.30;;
31531;SDS011;23787;52.180;5.288;2022-09-03T13:27:56;9.40;;;8.60;;
31531;SDS011;23787;52.180;5.288;2022-09-03T13:32:54;9.40;;;8.60;;
31531;SDS011;23787;52.180;5.288;2022-09-03T13:37:54;9.40;;;8.60;;
31531;SDS011;23787;52.180;5.288;2022-09-03T13:42:51;10.00;;;9.10;;
31531;SDS011;23787;52.180;5.288;2022-09-03T13:47:51;10.00;;;9.10;;
31531;SDS011;23787;52.180;5.288;2022-09-03T13:52:52;10.00;;;9.10;;
31531;SDS011;23787;52.180;5.288;2022-09-03T13:57:53;13.10;;;12.10;;
31531;SDS011;23787;52.180;5.288;2022-09-03T14:02:52;13.10;;;12.10;;
31531;SDS011;23787;52.180;5.288;2022-09-03T14:08:10;13.10;;;12.10;;
31531;SDS011;23787;52.180;5.288;2022-09-03T14:12:59;9.00;;;8.30;;
31531;SDS011;23787;52.180;5.288;2022-09-03T14:17:55;9.00;;;8.30;;
31531;SDS011;23787;52.180;5.288;2022-09-03T14:22:52;9.00;;;8.30;;
31531;SDS011;23787;52.180;5.288;2022-09-03T14:27:49;14.00;;;12.90;;
31531;SDS011;23787;52.180;5.288;2022-09-03T14:32:55;14.00;;;12.90;;
31531;SDS011;23787;52.180;5.288;2022-09-03T14:38:00;14.00;;;12.90;;
31531;SDS011;23787;52.180;5.288;2022-09-03T14:43:00;11.30;;;10.20;;
31531;SDS011;23787;52.180;5.288;2022-09-03T14:48:03;11.30;;;10.20;;
31531;SDS011;23787;52.180;5.288;2022-09-03T14:53:00;11.30;;;10.20;;
31531;SDS011;23787;52.180;5.288;2022-09-03T14:58:01;10.70;;;9.90;;
31531;SDS011;23787;52.180;5.288;2022-09-03T15:03:05;10.70;;;9.90;;
31531;SDS011;23787;52.180;5.288;2022-09-03T15:07:53;10.70;;;9.90;;
31531;SDS011;23787;52.180;5.288;2022-09-03T15:12:51;13.50;;;12.20;;
31531;SDS011;23787;52.180;5.288;2022-09-03T15:17:54;13.50;;;12.20;;
31531;SDS011;23787;52.180;5.288;2022-09-03T15:27:57;9.90;;;8.90;;
31531;SDS011;23787;52.180;5.288;2022-09-03T15:32:58;9.90;;;8.90;;
31531;SDS011;23787;52.180;5.288;2022-09-03T15:37:54;9.90;;;8.90;;
31531;SDS011;23787;52.180;5.288;2022-09-03T15:42:52;11.70;;;10.70;;
31531;SDS011;23787;52.180;5.288;2022-09-03T15:47:52;11.70;;;10.70;;
31531;SDS011;23787;52.180;5.288;2022-09-03T15:52:55;11.70;;;10.70;;
31531;SDS011;23787;52.180;5.288;2022-09-03T15:57:53;14.30;;;13.20;;
31531;SDS011;23787;52.180;5.288;2022-09-03T16:02:53;14.30;;;13.20;;
31531;SDS011;23787;52.180;5.288;2022-09-03T16:08:02;14.30;;;13.20;;
31531;SDS011;23787;52.180;5.288;2022-09-03T16:12:57;12.90;;;11.90;;
31531;SDS011;23787;52.180;5.288;2022-09-03T16:17:54;12.90;;;11.90;;
31531;SDS011;23787;52.180;5.288;2022-09-03T16:22:55;12.90;;;11.90;;
31531;SDS011;23787;52.180;5.288;2022-09-03T16:27:53;11.40;;;10.50;;
31531;SDS011;23787;52.180;5.288;2022-09-03T16:33:00;11.40;;;10.50;;
31531;SDS011;23787;52.180;5.288;2022-09-03T16:42:53;17.10;;;15.70;;
31531;SDS011;23787;52.180;5.288;2022-09-03T16:47:58;17.10;;;15.70;;
31531;SDS011;23787;52.180;5.288;2022-09-03T16:53:00;17.10;;;15.70;;
31531;SDS011;23787;52.180;5.288;2022-09-03T16:59:13;14.50;;;13.30;;
31531;SDS011;23787;52.180;5.288;2022-09-03T17:03:02;14.50;;;13.30;;
31531;SDS011;23787;52.180;5.288;2022-09-03T17:07:59;14.50;;;13.30;;
31531;SDS011;23787;52.180;5.288;2022-09-03T17:13:07;9.00;;;8.10;;
31531;SDS011;23787;52.180;5.288;2022-09-03T17:17:57;9.00;;;8.10;;
31531;SDS011;23787;52.180;5.288;2022-09-03T17:22:57;9.00;;;8.10;;
31531;SDS011;23787;52.180;5.288;2022-09-03T17:27:51;15.80;;;14.30;;
31531;SDS011;23787;52.180;5.288;2022-09-03T17:33:02;15.80;;;14.30;;
31531;SDS011;23787;52.180;5.288;2022-09-03T17:37:56;15.80;;;14.30;;
31531;SDS011;23787;52.180;5.288;2022-09-03T17:42:53;15.00;;;13.70;;
31531;SDS011;23787;52.180;5.288;2022-09-03T17:57:52;16.60;;;15.20;;
31531;SDS011;23787;52.180;5.288;2022-09-03T18:02:52;16.60;;;15.20;;
31531;SDS011;23787;52.180;5.288;2022-09-03T18:07:53;16.60;;;15.20;;
31531;SDS011;23787;52.180;5.288;2022-09-03T18:12:53;13.50;;;12.30;;
31531;SDS011;23787;52.180;5.288;2022-09-03T18:17:53;13.50;;;12.30;;
31531;SDS011;23787;52.180;5.288;2022-09-03T18:22:55;13.50;;;12.30;;
31531;SDS011;23787;52.180;5.288;2022-09-03T18:27:53;16.90;;;15.30;;
31531;SDS011;23787;52.180;5.288;2022-09-03T18:32:49;16.90;;;15.30;;
31531;SDS011;23787;52.180;5.288;2022-09-03T18:37:49;16.90;;;15.30;;
31531;SDS011;23787;52.180;5.288;2022-09-03T18:42:58;14.70;;;13.40;;
31531;SDS011;23787;52.180;5.288;2022-09-03T18:47:58;14.70;;;13.40;;
31531;SDS011;23787;52.180;5.288;2022-09-03T18:58:01;17.40;;;15.90;;
31531;SDS011;23787;52.180;5.288;2022-09-03T19:03:01;17.40;;;15.90;;
31531;SDS011;23787;52.180;5.288;2022-09-03T19:07:55;17.40;;;15.90;;
31531;SDS011;23787;52.180;5.288;2022-09-03T19:13:04;22.30;;;20.10;;
31531;SDS011;23787;52.180;5.288;2022-09-03T19:17:59;22.30;;;20.10;;
31531;SDS011;23787;52.180;5.288;2022-09-03T19:22:49;22.30;;;20.10;;
31531;SDS011;23787;52.180;5.288;2022-09-03T19:28:01;21.40;;;19.50;;
31531;SDS011;23787;52.180;5.288;2022-09-03T19:33:00;21.40;;;19.50;;
31531;SDS011;23787;52.180;5.288;2022-09-03T19:42:57;22.60;;;20.30;;
31531;SDS011;23787;52.180;5.288;2022-09-03T19:47:56;22.60;;;20.30;;
31531;SDS011;23787;52.180;5.288;2022-09-03T19:52:52;22.60;;;20.30;;
31531;SDS011;23787;52.180;5.288;2022-09-03T19:57:52;28.30;;;25.70;;
31531;SDS011;23787;52.180;5.288;2022-09-03T20:02:49;28.30;;;25.70;;
31531;SDS011;23787;52.180;5.288;2022-09-03T20:07:51;28.30;;;25.70;;
31531;SDS011;23787;52.180;5.288;2022-09-03T20:12:55;40.60;;;36.50;;
31531;SDS011;23787;52.180;5.288;2022-09-03T20:17:56;40.60;;;36.50;;
31531;SDS011;23787;52.180;5.288;2022-09-03T20:22:55;40.60;;;36.50;;
31531;SDS011;23787;52.180;5.288;2022-09-03T20:27:54;40.10;;;36.60;;
31531;SDS011;23787;52.180;5.288;2022-09-03T20:33:02;40.10;;;36.60;;
31531;SDS011;23787;52.180;5.288;2022-09-03T20:37:55;40.10;;;36.60;;
31531;SDS011;23787;52.180;5.288;2022-09-03T20:43:02;52.30;;;47.70;;
31531;SDS011;23787;52.180;5.288;2022-09-03T20:48:02;52.30;;;47.70;;
31531;SDS011;23787;52.180;5.288;2022-09-03T20:52:57;52.30;;;47.70;;
31531;SDS011;23787;52.180;5.288;2022-09-03T20:57:54;53.50;;;48.60;;
31531;SDS011;23787;52.180;5.288;2022-09-03T21:12:56;64.80;;;59.40;;
31531;SDS011;23787;52.180;5.288;2022-09-03T21:17:55;64.80;;;59.40;;
31531;SDS011;23787;52.180;5.288;2022-09-03T21:23:00;64.80;;;59.40;;
31531;SDS011;23787;52.180;5.288;2022-09-03T21:32:52;64.30;;;58.80;;
31531;SDS011;23787;52.180;5.288;2022-09-03T21:47:52;65.10;;;59.40;;
31531;SDS011;23787;52.180;5.288;2022-09-03T21:52:53;65.10;;;59.40;;
31531;SDS011;23787;52.180;5.288;2022-09-03T21:57:58;77.20;;;69.90;;
31531;SDS011;23787;52.180;5.288;2022-09-03T22:02:49;77.20;;;69.90;;
31531;SDS011;23787;52.180;5.288;2022-09-03T22:27:57;88.80;;;80.30;;
31531;SDS011;23787;52.180;5.288;2022-09-03T22:32:57;88.80;;;80.30;;
31531;SDS011;23787;52.180;5.288;2022-09-03T22:38:00;88.80;;;80.30;;
31531;SDS011;23787;52.180;5.288;2022-09-03T22:47:57;122.40;;;112.50;;
31531;SDS011;23787;52.180;5.288;2022-09-03T22:57:55;126.00;;;115.50;;
31531;SDS011;23787;52.180;5.288;2022-09-03T23:02:52;126.00;;;115.50;;
31531;SDS011;23787;52.180;5.288;2022-09-03T23:12:52;134.50;;;122.90;;
31531;SDS011;23787;52.180;5.288;2022-09-03T23:17:53;134.50;;;122.90;;
31531;SDS011;23787;52.180;5.288;2022-09-03T23:22:52;134.50;;;122.90;;
31531;SDS011;23787;52.180;5.288;2022-09-03T23:27:55;125.40;;;115.10;;
31531;SDS011;23787;52.180;5.288;2022-09-03T23:32:52;125.40;;;115.10;;
31531;SDS011;23787;52.180;5.288;2022-09-03T23:37:57;125.40;;;115.10;;
31531;SDS011;23787;52.180;5.288;2022-09-03T23:47:52;157.20;;;143.90;;
31531;SDS011;23787;52.180;5.288;2022-09-03T23:53:06;157.20;;;143.90;;
31531;SDS011;23787;52.180;5.288;2022-09-03T23:57:56;134.70;;;124.00;;
